createdAt,value
2022-07-25T00:01:47.679Z,74.47
2022-07-25T00:04:14.850Z,74.48
2022-07-25T00:06:43.110Z,73.96
2022-07-25T00:09:10.601Z,74.40
2022-07-25T00:11:38.186Z,74.40
2022-07-25T00:14:06.559Z,74.54
2022-07-25T00:16:33.707Z,74.75
2022-07-25T00:19:01.114Z,74.78
2022-07-25T00:21:28.056Z,74.98
2022-07-25T00:23:54.910Z,74.75
2022-07-25T00:26:21.913Z,75.26
2022-07-25T00:28:48.739Z,74.81
2022-07-25T00:31:15.730Z,74.84
2022-07-25T00:33:42.808Z,74.67
2022-07-25T00:36:09.943Z,75.10
2022-07-25T00:38:36.878Z,75.58
2022-07-25T00:41:04.581Z,75.47
2022-07-25T00:43:31.739Z,75.57
2022-07-25T00:45:59.519Z,75.59
2022-07-25T00:48:31.231Z,75.41
2022-07-25T00:50:59.190Z,75.58
2022-07-25T00:53:26.268Z,75.49
2022-07-25T00:55:53.526Z,75.95
2022-07-25T00:58:20.461Z,75.76
2022-07-25T01:00:48.029Z,75.59
2022-07-25T01:03:15.758Z,75.74
2022-07-25T01:05:43.224Z,75.66
2022-07-25T01:08:10.479Z,75.54
2022-07-25T01:10:37.959Z,75.82
2022-07-25T01:13:05.456Z,76.09
2022-07-25T01:15:32.443Z,75.96
2022-07-25T01:17:59.645Z,75.70
2022-07-25T01:20:28.574Z,75.70
2022-07-25T01:22:56.634Z,75.54
2022-07-25T01:25:24.750Z,75.35
2022-07-25T01:27:55.798Z,75.12
2022-07-25T01:30:23.720Z,75.37
2022-07-25T01:32:51.116Z,74.64
2022-07-25T01:35:18.158Z,74.36
2022-07-25T01:37:45.420Z,74.20
2022-07-25T01:40:14.234Z,73.91
2022-07-25T01:42:41.966Z,73.20
2022-07-25T01:45:09.569Z,73.38
2022-07-25T01:47:36.679Z,73.06
2022-07-25T01:50:04.853Z,73.17
2022-07-25T01:52:31.791Z,71.97
2022-07-25T01:54:58.841Z,72.18
2022-07-25T01:57:30.824Z,72.07
2022-07-25T01:59:58.263Z,71.54
2022-07-25T02:02:25.393Z,71.18
2022-07-25T02:04:53.632Z,71.20
2022-07-25T02:07:20.879Z,71.67
2022-07-25T02:09:47.713Z,71.19
2022-07-25T02:12:14.590Z,70.92
2022-07-25T02:14:41.633Z,71.07
2022-07-25T02:17:08.652Z,71.06
2022-07-25T02:19:36.583Z,70.88
2022-07-25T02:22:03.808Z,71.41
2022-07-25T02:24:30.870Z,70.42
2022-07-25T02:26:58.039Z,71.20
2022-07-25T02:29:25.470Z,70.70
2022-07-25T02:31:53.298Z,71.18
2022-07-25T02:34:20.290Z,71.53
2022-07-25T02:36:47.425Z,72.03
2022-07-25T02:39:14.436Z,71.95
2022-07-25T02:41:41.287Z,71.97
2022-07-25T02:44:08.371Z,72.59
2022-07-25T02:46:35.681Z,72.68
2022-07-25T02:49:02.967Z,72.15
2022-07-25T02:51:30.118Z,71.80
2022-07-25T02:53:58.459Z,72.15
2022-07-25T02:56:29.799Z,71.73
2022-07-25T02:58:57.545Z,71.80
2022-07-25T03:01:24.512Z,71.37
2022-07-25T03:03:51.636Z,71.58
2022-07-25T03:06:18.630Z,72.41
2022-07-25T03:08:45.535Z,71.98
2022-07-25T03:11:13.891Z,72.14
2022-07-25T03:13:40.789Z,72.29
2022-07-25T03:16:08.282Z,71.66
2022-07-25T03:18:35.234Z,71.90
2022-07-25T03:21:02.453Z,72.07
2022-07-25T03:23:31.146Z,72.70
2022-07-25T03:25:58.156Z,72.09
2022-07-25T03:28:25.406Z,72.32
2022-07-25T03:30:53.390Z,71.98
2022-07-25T03:33:20.290Z,72.33
2022-07-25T03:35:47.274Z,72.89
2022-07-25T03:38:14.455Z,72.52
2022-07-25T03:40:41.300Z,72.64
2022-07-25T03:43:08.184Z,73.27
2022-07-25T03:45:35.428Z,73.10
2022-07-25T03:48:02.753Z,72.74
2022-07-25T03:50:29.674Z,72.55
2022-07-25T03:52:56.519Z,72.65
2022-07-25T03:55:23.513Z,72.73
2022-07-25T03:57:51.086Z,72.19
2022-07-25T04:00:18.135Z,72.98
2022-07-25T04:02:45.227Z,73.20
2022-07-25T04:05:12.439Z,72.26
2022-07-25T04:07:39.738Z,72.56
2022-07-25T04:10:08.011Z,72.67
2022-07-25T04:12:35.251Z,73.04
2022-07-25T04:15:02.333Z,72.81
2022-07-25T04:17:29.343Z,72.80
2022-07-25T04:19:57.571Z,73.16
2022-07-25T04:22:24.663Z,73.43
2022-07-25T04:24:58.726Z,73.25
2022-07-25T04:27:25.938Z,72.96
2022-07-25T04:29:53.032Z,73.25
2022-07-25T04:32:23.261Z,73.13
2022-07-25T04:34:58.934Z,72.79
2022-07-25T04:37:26.080Z,73.27
2022-07-25T04:39:53.109Z,73.93
2022-07-25T04:42:20.116Z,73.47
2022-07-25T04:44:55.733Z,73.55
2022-07-25T04:47:22.879Z,73.34
2022-07-25T04:49:50.053Z,73.17
2022-07-25T04:52:17.021Z,73.57
2022-07-25T04:54:44.222Z,73.47
2022-07-25T04:57:11.270Z,73.93
2022-07-25T04:59:38.300Z,73.49
2022-07-25T05:02:05.524Z,73.54
2022-07-25T05:04:32.641Z,73.28
2022-07-25T05:07:02.463Z,73.72
2022-07-25T05:09:29.407Z,73.38
2022-07-25T05:11:56.572Z,73.14
2022-07-25T05:14:23.934Z,72.99
2022-07-25T05:16:50.978Z,73.52
2022-07-25T05:19:17.877Z,72.83
2022-07-25T05:21:44.675Z,72.54
2022-07-25T05:24:12.234Z,72.25
2022-07-25T05:26:39.130Z,72.38
2022-07-25T05:29:06.125Z,72.23
2022-07-25T05:31:32.942Z,72.26
2022-07-25T05:33:59.805Z,72.95
2022-07-25T05:36:26.638Z,73.36
2022-07-25T05:38:54.360Z,73.48
2022-07-25T05:41:21.326Z,73.07
2022-07-25T05:43:49.014Z,72.28
2022-07-25T05:46:19.235Z,72.71
2022-07-25T05:48:46.353Z,73.18
2022-07-25T05:51:13.340Z,72.50
2022-07-25T05:53:40.286Z,72.49
2022-07-25T05:56:07.481Z,72.76
2022-07-25T05:58:34.346Z,73.41
2022-07-25T06:01:01.299Z,72.47
2022-07-25T06:03:28.237Z,72.47
2022-07-25T06:05:56.874Z,72.17
2022-07-25T06:08:24.155Z,71.28
2022-07-25T06:10:51.828Z,71.59
2022-07-25T06:13:20.762Z,71.20
2022-07-25T06:15:47.798Z,71.29
2022-07-25T06:18:15.367Z,70.62
2022-07-25T06:20:42.786Z,69.72
2022-07-25T06:23:10.213Z,70.65
2022-07-25T06:25:37.390Z,70.21
2022-07-25T06:28:04.705Z,70.05
2022-07-25T06:30:32.051Z,69.62
2022-07-25T06:32:59.201Z,69.71
2022-07-25T06:35:26.626Z,69.15
2022-07-25T06:37:54.039Z,69.23
2022-07-25T06:40:21.082Z,68.88
2022-07-25T06:42:48.309Z,69.09
2022-07-25T06:45:15.922Z,68.64
2022-07-25T06:47:44.374Z,68.05
2022-07-25T06:50:13.891Z,68.22
2022-07-25T06:52:41.996Z,68.62
2022-07-25T06:55:10.705Z,69.80
2022-07-25T06:57:38.084Z,69.42
2022-07-25T07:00:09.827Z,68.48
2022-07-25T07:02:47.989Z,68.60
2022-07-25T07:05:15.012Z,68.93
2022-07-25T07:07:47.449Z,67.97
2022-07-25T07:10:14.588Z,67.50
2022-07-25T07:12:41.574Z,67.78
2022-07-25T07:15:09.388Z,67.45
2022-07-25T07:17:36.966Z,68.19
2022-07-25T07:20:07.467Z,68.26
2022-07-25T07:22:47.686Z,67.54
2022-07-25T07:25:18.803Z,67.59
2022-07-25T07:27:47.864Z,66.80
2022-07-25T07:30:16.790Z,67.11
2022-07-25T07:32:47.360Z,65.81
2022-07-25T07:35:19.463Z,66.35
2022-07-25T07:37:46.992Z,66.18
2022-07-25T07:40:18.383Z,66.60
2022-07-25T07:42:49.965Z,66.34
2022-07-25T07:45:22.944Z,65.38
2022-07-25T07:47:52.850Z,64.89
2022-07-25T07:50:22.659Z,64.40
2022-07-25T07:52:50.830Z,65.04
2022-07-25T07:55:37.060Z,64.18
2022-07-25T07:58:04.896Z,65.60
2022-07-25T08:00:32.137Z,64.34
2022-07-25T08:03:00.600Z,64.48
2022-07-25T08:05:36.418Z,65.07
2022-07-25T08:08:05.790Z,64.41
2022-07-25T08:10:36.639Z,64.80
2022-07-25T08:13:16.429Z,64.23
2022-07-25T08:15:46.063Z,64.10
2022-07-25T08:18:17.616Z,65.23
2022-07-25T08:20:46.482Z,63.20
2022-07-25T08:23:14.004Z,64.08
2022-07-25T08:25:41.641Z,63.64
2022-07-25T08:28:09.451Z,62.77
2022-07-25T08:30:38.323Z,61.61
2022-07-25T08:33:11.714Z,61.01
2022-07-25T08:35:40.354Z,61.40
2022-07-25T08:38:09.060Z,59.74
2022-07-25T08:40:36.075Z,61.25
2022-07-25T08:43:05.071Z,60.69
2022-07-25T08:45:35.117Z,60.31
2022-07-25T08:48:02.184Z,61.19
2022-07-25T08:50:30.456Z,61.56
2022-07-25T08:53:16.541Z,65.07
2022-07-25T08:55:46.351Z,64.52
2022-07-25T08:58:15.961Z,61.47
2022-07-25T09:00:44.072Z,62.35
2022-07-25T09:03:12.346Z,61.82
2022-07-25T09:05:40.226Z,60.98
2022-07-25T09:08:10.548Z,60.63
2022-07-25T09:10:39.444Z,61.22
2022-07-25T09:13:14.590Z,60.90
2022-07-25T09:15:50.250Z,59.59
2022-07-25T09:18:20.163Z,59.66
2022-07-25T09:20:58.850Z,60.30
2022-07-25T09:23:37.397Z,59.69
2022-07-25T09:26:09.875Z,59.21
2022-07-25T09:28:47.468Z,59.64
2022-07-25T09:31:17.029Z,59.08
2022-07-25T09:33:56.845Z,59.51
2022-07-25T09:36:24.302Z,58.98
2022-07-25T09:38:55.591Z,58.56
2022-07-25T09:41:23.629Z,58.43
2022-07-25T09:43:50.861Z,57.69
2022-07-25T09:46:17.749Z,58.56
2022-07-25T09:48:45.635Z,57.17
2022-07-25T09:51:12.586Z,56.52
2022-07-25T09:53:41.006Z,56.89
2022-07-25T09:56:08.689Z,56.74
2022-07-25T09:58:36.205Z,56.81
2022-07-25T10:01:06.349Z,55.49
2022-07-25T10:03:50.696Z,56.40
2022-07-25T10:06:22.520Z,57.71
2022-07-25T10:08:50.928Z,55.92
2022-07-25T10:11:25.994Z,56.51
2022-07-25T10:13:57.329Z,55.85
2022-07-25T10:16:26.385Z,55.77
2022-07-25T10:18:58.687Z,56.95
2022-07-25T10:21:28.576Z,55.66
2022-07-25T10:24:06.651Z,57.07
2022-07-25T10:26:36.619Z,55.71
2022-07-25T10:29:10.073Z,56.28
2022-07-25T10:31:39.990Z,57.69
2022-07-25T10:34:10.614Z,57.68
2022-07-25T10:36:46.328Z,57.54
2022-07-25T10:39:16.105Z,57.74
2022-07-25T10:41:54.954Z,57.00
2022-07-25T10:44:22.225Z,56.32
2022-07-25T10:46:50.813Z,56.53
2022-07-25T10:49:19.191Z,56.83
2022-07-25T10:51:56.760Z,56.61
2022-07-25T10:54:23.886Z,57.07
2022-07-25T10:56:58.242Z,57.28
2022-07-25T10:59:29.312Z,56.84
2022-07-25T11:01:56.219Z,57.27
2022-07-25T11:04:24.123Z,57.02
2022-07-25T11:06:51.403Z,57.45
2022-07-25T11:09:27.328Z,57.94
2022-07-25T11:11:59.489Z,58.23
2022-07-25T11:14:36.485Z,59.02
2022-07-25T11:17:18.870Z,59.26
2022-07-25T11:20:01.423Z,59.39
2022-07-25T11:22:30.229Z,59.98
2022-07-25T11:25:03.640Z,59.58
2022-07-25T11:27:33.313Z,60.25
2022-07-25T11:30:15.578Z,60.48
2022-07-25T11:32:44.780Z,61.46
2022-07-25T11:35:14.246Z,61.69
2022-07-25T11:37:43.616Z,61.74
2022-07-25T11:40:11.962Z,61.70
2022-07-25T11:42:45.319Z,61.69
2022-07-25T11:45:20.826Z,62.13
2022-07-25T11:48:05.106Z,61.56
2022-07-25T11:50:35.499Z,62.58
2022-07-25T11:53:04.887Z,62.29
2022-07-25T11:55:40.473Z,61.81
2022-07-25T11:58:07.742Z,62.15
2022-07-25T12:00:40.369Z,62.27
2022-07-25T12:03:08.959Z,62.23
2022-07-25T12:05:36.473Z,62.48
2022-07-25T12:08:20.258Z,62.26
2022-07-25T12:10:51.703Z,62.60
2022-07-25T12:13:27.314Z,60.79
2022-07-25T12:15:56.504Z,61.14
2022-07-25T12:18:23.558Z,61.60
2022-07-25T12:20:50.711Z,60.68
2022-07-25T12:23:17.902Z,60.88
2022-07-25T12:25:46.627Z,59.54
2022-07-25T12:28:14.703Z,59.14
2022-07-25T12:30:43.934Z,58.85
2022-07-25T12:33:15.181Z,58.89
2022-07-25T12:35:43.496Z,59.20
2022-07-25T12:38:11.543Z,58.59
2022-07-25T12:40:39.313Z,56.58
2022-07-25T12:43:06.840Z,60.92
2022-07-25T12:45:33.969Z,61.82
2022-07-25T12:48:00.974Z,56.14
2022-07-25T12:50:27.855Z,55.63
2022-07-25T12:52:55.215Z,55.49
2022-07-25T12:55:22.266Z,55.27
2022-07-25T12:57:50.453Z,56.04
2022-07-25T13:00:20.101Z,55.98
2022-07-25T13:02:48.455Z,55.04
2022-07-25T13:05:15.395Z,53.48
2022-07-25T13:07:42.227Z,54.85
2022-07-25T13:10:09.676Z,53.73
2022-07-25T13:12:37.605Z,53.69
2022-07-25T13:15:11.568Z,53.70
2022-07-25T13:17:40.654Z,54.47
2022-07-25T13:20:08.609Z,54.96
2022-07-25T13:22:35.711Z,54.58
2022-07-25T13:25:06.127Z,53.80
2022-07-25T13:27:32.984Z,54.93
2022-07-25T13:29:59.985Z,55.09
2022-07-25T13:32:28.809Z,54.35
2022-07-25T13:35:02.881Z,54.36
2022-07-25T13:37:30.339Z,53.23
2022-07-25T13:39:59.403Z,52.94
2022-07-25T13:42:26.564Z,52.84
2022-07-25T13:45:00.955Z,52.66
2022-07-25T13:47:30.385Z,52.59
2022-07-25T13:49:57.653Z,52.52
2022-07-25T13:52:24.513Z,51.76
2022-07-25T13:55:03.139Z,50.70
2022-07-25T13:57:33.921Z,50.98
2022-07-25T14:00:01.132Z,51.70
2022-07-25T14:02:30.843Z,51.30
2022-07-25T14:05:04.355Z,50.99
2022-07-25T14:07:31.336Z,51.69
2022-07-25T14:09:59.311Z,52.05
2022-07-25T14:12:26.181Z,51.65
2022-07-25T14:15:02.232Z,52.55
2022-07-25T14:17:30.493Z,52.84
2022-07-25T14:19:58.017Z,52.47
2022-07-25T14:22:24.802Z,52.66
2022-07-25T14:25:01.466Z,53.54
2022-07-25T14:27:28.505Z,52.95
2022-07-25T14:29:55.580Z,53.08
2022-07-25T14:32:23.616Z,52.99
2022-07-25T14:35:07.023Z,53.65
2022-07-25T14:37:34.916Z,53.04
2022-07-25T14:40:03.073Z,53.45
2022-07-25T14:42:31.535Z,53.46
2022-07-25T14:45:07.459Z,53.71
2022-07-25T14:47:35.407Z,53.72
2022-07-25T14:50:02.251Z,54.74
2022-07-25T14:52:29.147Z,53.16
2022-07-25T14:55:03.490Z,54.46
2022-07-25T14:57:30.306Z,54.41
2022-07-25T14:59:57.178Z,53.17
2022-07-25T15:02:24.285Z,53.25
2022-07-25T15:05:00.419Z,53.28
2022-07-25T15:07:27.645Z,53.93
2022-07-25T15:09:54.596Z,53.73
2022-07-25T15:12:22.057Z,53.23
2022-07-25T15:15:01.999Z,53.04
2022-07-25T15:17:29.504Z,54.95
2022-07-25T15:19:56.948Z,54.97
2022-07-25T15:22:23.998Z,54.17
2022-07-25T15:25:34.870Z,54.36
2022-07-25T15:27:44.539Z,54.26
2022-07-25T15:30:11.962Z,54.76
2022-07-25T15:32:40.529Z,55.30
2022-07-25T15:35:08.557Z,56.09
2022-07-25T15:37:35.754Z,56.02
2022-07-25T15:40:03.422Z,55.87
2022-07-25T15:42:30.269Z,55.83
2022-07-25T15:45:30.218Z,55.35
2022-07-25T15:47:50.705Z,54.98
2022-07-25T15:50:18.945Z,55.23
2022-07-25T15:52:46.909Z,54.99
2022-07-25T15:55:13.766Z,56.04
2022-07-25T15:57:40.822Z,55.54
2022-07-25T16:00:09.693Z,54.94
2022-07-25T16:02:36.589Z,55.29
2022-07-25T16:05:04.735Z,54.23
2022-07-25T16:07:31.640Z,54.93
2022-07-25T16:09:59.051Z,53.69
2022-07-25T16:12:28.642Z,53.61
2022-07-25T16:15:01.724Z,52.34
2022-07-25T16:17:28.929Z,53.61
2022-07-25T16:19:56.113Z,53.68
2022-07-25T16:22:23.478Z,52.81
2022-07-25T16:25:04.730Z,53.38
2022-07-25T16:27:31.812Z,53.31
2022-07-25T16:30:00.268Z,52.95
2022-07-25T16:32:28.855Z,52.78
2022-07-25T16:35:07.222Z,53.01
2022-07-25T16:37:34.542Z,50.84
2022-07-25T16:40:01.421Z,51.27
2022-07-25T16:42:28.301Z,51.43
2022-07-25T16:45:00.440Z,51.46
2022-07-25T16:47:27.825Z,51.15
2022-07-25T16:49:55.023Z,51.09
2022-07-25T16:52:23.128Z,51.80
2022-07-25T16:55:04.044Z,52.75
2022-07-25T16:57:34.028Z,52.45
2022-07-25T17:00:01.147Z,52.21
2022-07-25T17:02:29.853Z,52.49
2022-07-25T17:05:02.592Z,52.84
2022-07-25T17:07:29.633Z,53.17
2022-07-25T17:09:56.474Z,52.38
2022-07-25T17:12:23.349Z,52.30
2022-07-25T17:14:56.442Z,53.20
2022-07-25T17:17:23.430Z,53.84
2022-07-25T17:19:50.702Z,53.96
2022-07-25T17:22:17.975Z,54.72
2022-07-25T17:24:53.023Z,54.99
2022-07-25T17:27:20.125Z,55.70
2022-07-25T17:29:47.341Z,55.79
2022-07-25T17:32:16.501Z,56.38
2022-07-25T17:34:43.548Z,57.03
2022-07-25T17:37:10.491Z,57.34
2022-07-25T17:39:38.111Z,56.94
2022-07-25T17:42:07.628Z,57.22
2022-07-25T17:44:35.178Z,57.31
2022-07-25T17:47:03.517Z,56.67
2022-07-25T17:49:30.837Z,56.22
2022-07-25T17:51:57.731Z,55.87
2022-07-25T17:54:24.776Z,56.24
2022-07-25T17:56:52.341Z,55.91
2022-07-25T17:59:19.671Z,55.48
2022-07-25T18:01:46.682Z,55.20
2022-07-25T18:04:14.729Z,55.11
2022-07-25T18:06:41.975Z,54.61
2022-07-25T18:09:08.929Z,53.61
2022-07-25T18:11:35.831Z,54.43
2022-07-25T18:14:02.861Z,55.04
2022-07-25T18:16:29.794Z,52.85
2022-07-25T18:18:56.770Z,52.17
2022-07-25T18:21:24.689Z,52.16
2022-07-25T18:23:51.986Z,52.60
2022-07-25T18:26:18.871Z,53.11
2022-07-25T18:28:45.812Z,54.12
2022-07-25T18:31:12.819Z,53.56
2022-07-25T18:33:39.693Z,53.51
2022-07-25T18:36:07.808Z,53.58
2022-07-25T18:38:35.717Z,53.62
2022-07-25T18:41:27.605Z,53.81
2022-07-25T18:43:51.824Z,54.10
2022-07-25T18:46:19.782Z,54.59
2022-07-25T18:48:47.780Z,55.44
2022-07-25T18:51:14.790Z,54.59
2022-07-25T18:53:45.957Z,54.40
2022-07-25T18:56:14.763Z,55.56
2022-07-25T18:58:41.633Z,54.90
2022-07-25T19:01:09.566Z,54.99
2022-07-25T19:03:37.888Z,55.25
2022-07-25T19:06:05.493Z,55.24
2022-07-25T19:08:32.835Z,55.11
2022-07-25T19:11:00.017Z,55.36
2022-07-25T19:13:48.279Z,55.34
2022-07-25T19:16:14.457Z,55.56
2022-07-25T19:18:42.073Z,55.77
2022-07-25T19:21:09.096Z,55.77
2022-07-25T19:23:36.210Z,55.60
2022-07-25T19:26:03.241Z,56.45
2022-07-25T19:28:30.275Z,55.42
2022-07-25T19:30:57.769Z,53.69
2022-07-25T19:33:25.273Z,53.46
2022-07-25T19:36:01.847Z,53.41
2022-07-25T19:38:28.822Z,53.36
2022-07-25T19:40:56.224Z,52.96
2022-07-25T19:43:23.272Z,53.14
2022-07-25T19:45:50.465Z,53.90
2022-07-25T19:48:18.244Z,53.92
2022-07-25T19:50:45.934Z,54.34
2022-07-25T19:53:13.048Z,53.56
2022-07-25T19:55:40.218Z,53.56
2022-07-25T19:58:08.831Z,54.50
2022-07-25T20:00:36.203Z,54.45
2022-07-25T20:03:04.560Z,54.69
2022-07-25T20:05:31.869Z,54.30
2022-07-25T20:07:59.011Z,54.63
2022-07-25T20:10:26.201Z,54.82
2022-07-25T20:12:54.994Z,55.03
2022-07-25T20:15:25.183Z,55.07
2022-07-25T20:17:52.276Z,55.63
2022-07-25T20:20:19.227Z,55.00
2022-07-25T20:22:48.080Z,55.15
2022-07-25T20:25:15.283Z,55.76
2022-07-25T20:27:42.320Z,56.67
2022-07-25T20:30:09.909Z,57.39
2022-07-25T20:32:37.158Z,58.20
2022-07-25T20:35:05.026Z,58.55
2022-07-25T20:37:31.900Z,58.79
2022-07-25T20:39:58.722Z,59.83
2022-07-25T20:42:25.586Z,59.63
2022-07-25T20:44:53.697Z,60.60
2022-07-25T20:47:20.661Z,60.63
2022-07-25T20:49:47.540Z,60.53
2022-07-25T20:52:14.586Z,60.09
2022-07-25T20:54:43.040Z,60.64
2022-07-25T20:57:11.706Z,59.90
2022-07-25T20:59:38.583Z,59.90
2022-07-25T21:02:05.862Z,59.37
2022-07-25T21:04:32.801Z,59.66
2022-07-25T21:06:59.638Z,59.66
2022-07-25T21:09:29.598Z,58.72
2022-07-25T21:11:59.524Z,57.96
2022-07-25T21:14:27.105Z,57.68
2022-07-25T21:16:54.358Z,57.61
2022-07-25T21:19:21.249Z,58.12
2022-07-25T21:21:48.758Z,58.56
2022-07-25T21:24:15.801Z,58.98
2022-07-25T21:26:43.185Z,58.88
2022-07-25T21:29:10.595Z,58.46
2022-07-25T21:31:37.986Z,58.59
2022-07-25T21:34:05.218Z,58.76
2022-07-25T21:36:32.246Z,58.93
2022-07-25T21:38:59.055Z,58.76
2022-07-25T21:41:25.908Z,59.36
2022-07-25T21:43:52.756Z,58.96
2022-07-25T21:46:19.715Z,59.08
2022-07-25T21:49:05.520Z,59.51
2022-07-25T21:51:40.456Z,59.67
2022-07-25T21:54:08.114Z,59.18
2022-07-25T21:56:35.035Z,59.47
2022-07-25T21:59:02.116Z,59.27
2022-07-25T22:01:29.064Z,59.54
2022-07-25T22:03:56.160Z,59.30
2022-07-25T22:06:23.004Z,59.08
2022-07-25T22:08:49.847Z,58.84
2022-07-25T22:11:38.595Z,58.13
2022-07-25T22:14:03.733Z,57.38
2022-07-25T22:16:30.709Z,57.54
2022-07-25T22:18:57.725Z,56.97
2022-07-25T22:21:24.624Z,56.96
2022-07-25T22:23:51.497Z,57.17
2022-07-25T22:26:20.456Z,57.13
2022-07-25T22:28:48.387Z,57.04
2022-07-25T22:31:15.547Z,56.59
2022-07-25T22:33:42.532Z,56.77
2022-07-25T22:36:09.632Z,56.41
2022-07-25T22:38:36.548Z,56.64
2022-07-25T22:41:03.490Z,56.56
2022-07-25T22:43:56.677Z,56.51
2022-07-25T22:46:17.449Z,56.79
2022-07-25T22:48:44.363Z,56.84
2022-07-25T22:51:12.094Z,56.82
2022-07-25T22:53:38.985Z,57.22
2022-07-25T22:56:06.184Z,57.13
2022-07-25T22:58:33.038Z,56.97
2022-07-25T23:00:59.973Z,56.96
2022-07-25T23:03:29.741Z,57.01
2022-07-25T23:06:00.110Z,57.32
2022-07-25T23:08:27.101Z,57.57
2022-07-25T23:10:54.104Z,57.44
2022-07-25T23:13:21.013Z,57.90
2022-07-25T23:15:49.466Z,57.99
2022-07-25T23:18:17.412Z,58.06
2022-07-25T23:20:44.257Z,57.98
2022-07-25T23:23:11.175Z,58.01
2022-07-25T23:25:38.065Z,57.73
2022-07-25T23:28:05.318Z,57.54
2022-07-25T23:30:37.998Z,57.51
2022-07-25T23:33:07.408Z,57.91
2022-07-25T23:35:34.839Z,57.39
2022-07-25T23:38:01.968Z,57.43
2022-07-25T23:40:28.850Z,57.36
2022-07-25T23:42:55.727Z,57.10
2022-07-25T23:45:24.282Z,57.43
2022-07-25T23:47:54.995Z,58.07
2022-07-25T23:50:22.953Z,57.86
2022-07-25T23:52:50.073Z,58.02
2022-07-25T23:55:16.943Z,58.15
2022-07-25T23:57:43.910Z,58.42
